首页
METAR-TAF:

METAR-TAF

机场 :

瓦岱國際機場

永珍, 老挝

纬度: 17-57N, 经度: 102-34E, 海拔: 171米

当前天气观测

该预报发布于42分钟前的06:00 UTC
风速4节,风向西
温度 35°C
湿度 71%
气压 1004 hPa
能见度10公里或以上
散云层高于2000英尺
散云层高于20000英尺

METAR: VLVT 200600Z 27004KT 9999 SCT020 SCT200 35/29 Q1004 NOSIG

时间: 13:42 (06:42 UTC)

预报

该预报发布于1小时和42分钟前的05:00 UTC
预报有效从20日的 06点(UTC)到 21日的 06点(UTC)
风速4节,风向西转西南
能见度10公里或以上
散云层高于2000英尺
散云层高于20000英尺

TAF: VLVT 200500Z 2006/2106 24004KT 9999 SCT020 SCT200

超过4000个机场的气象观测和天气预报(METAR&TAF报告)。

可查询的气象台以黄色和红色小点在地图上表示。

将鼠标移到小点上方,可查看气象台名称。

然后点击查看天气观测和预报。

如需切换地图:点击带黑十字的绿色按钮放大地图;点击带横线的绿色按钮缩小地图;或者点击绿色箭头查看邻近地区的地图。


METAR-TAF: